sensor_id;sensor_type;location;lat;lon;timestamp;P1;durP1;ratioP1;P2;durP2;ratioP2
1505;SDS011;744;51.436;7.356;2023-04-12T00:01:01;4.67;;;1.63;;
1505;SDS011;744;51.436;7.356;2023-04-12T00:03:28;3.67;;;1.93;;
1505;SDS011;744;51.436;7.356;2023-04-12T00:05:59;4.67;;;1.53;;
1505;SDS011;744;51.436;7.356;2023-04-12T00:08:28;3.83;;;1.40;;
1505;SDS011;744;51.436;7.356;2023-04-12T00:10:58;3.80;;;1.70;;
1505;SDS011;744;51.436;7.356;2023-04-12T00:13:26;4.73;;;1.63;;
1505;SDS011;744;51.436;7.356;2023-04-12T00:15:53;3.50;;;1.13;;
1505;SDS011;744;51.436;7.356;2023-04-12T00:18:20;4.77;;;1.37;;
1505;SDS011;744;51.436;7.356;2023-04-12T00:20:50;2.60;;;1.50;;
1505;SDS011;744;51.436;7.356;2023-04-12T00:23:18;2.73;;;1.73;;
1505;SDS011;744;51.436;7.356;2023-04-12T00:25:45;3.20;;;1.90;;
1505;SDS011;744;51.436;7.356;2023-04-12T00:28:12;3.33;;;1.17;;
1505;SDS011;744;51.436;7.356;2023-04-12T00:30:40;6.30;;;1.77;;
1505;SDS011;744;51.436;7.356;2023-04-12T00:33:07;3.33;;;1.63;;
1505;SDS011;744;51.436;7.356;2023-04-12T00:35:34;6.07;;;2.00;;
1505;SDS011;744;51.436;7.356;2023-04-12T00:38:01;6.60;;;2.37;;
1505;SDS011;744;51.436;7.356;2023-04-12T00:40:29;6.73;;;1.73;;
1505;SDS011;744;51.436;7.356;2023-04-12T00:42:55;6.63;;;1.80;;
1505;SDS011;744;51.436;7.356;2023-04-12T00:45:22;2.40;;;1.50;;
1505;SDS011;744;51.436;7.356;2023-04-12T00:47:49;2.77;;;1.70;;
1505;SDS011;744;51.436;7.356;2023-04-12T00:50:16;5.03;;;1.50;;
1505;SDS011;744;51.436;7.356;2023-04-12T00:52:43;2.57;;;1.33;;
1505;SDS011;744;51.436;7.356;2023-04-12T00:55:10;2.60;;;1.70;;
1505;SDS011;744;51.436;7.356;2023-04-12T00:57:37;9.00;;;2.20;;
1505;SDS011;744;51.436;7.356;2023-04-12T01:00:05;4.53;;;1.60;;
1505;SDS011;744;51.436;7.356;2023-04-12T01:02:41;2.00;;;1.17;;
1505;SDS011;744;51.436;7.356;2023-04-12T01:05:13;3.57;;;1.93;;
1505;SDS011;744;51.436;7.356;2023-04-12T01:07:50;6.07;;;1.83;;
1505;SDS011;744;51.436;7.356;2023-04-12T01:13:33;1.70;;;1.10;;
1505;SDS011;744;51.436;7.356;2023-04-12T01:18:47;4.33;;;0.90;;
1505;SDS011;744;51.436;7.356;2023-04-12T01:21:40;9.67;;;1.33;;
1505;SDS011;744;51.436;7.356;2023-04-12T01:24:19;3.33;;;1.63;;
1505;SDS011;744;51.436;7.356;2023-04-12T01:26:54;2.30;;;1.33;;
1505;SDS011;744;51.436;7.356;2023-04-12T01:29:26;3.17;;;1.20;;
1505;SDS011;744;51.436;7.356;2023-04-12T01:31:57;3.67;;;1.43;;
1505;SDS011;744;51.436;7.356;2023-04-12T01:34:27;2.97;;;1.40;;
1505;SDS011;744;51.436;7.356;2023-04-12T01:36:57;4.77;;;1.90;;
1505;SDS011;744;51.436;7.356;2023-04-12T01:39:27;3.83;;;1.53;;
1505;SDS011;744;51.436;7.356;2023-04-12T01:41:54;2.97;;;1.17;;
1505;SDS011;744;51.436;7.356;2023-04-12T01:44:22;3.87;;;1.10;;
1505;SDS011;744;51.436;7.356;2023-04-12T01:46:49;5.67;;;1.60;;
1505;SDS011;744;51.436;7.356;2023-04-12T01:49:17;8.43;;;2.60;;
1505;SDS011;744;51.436;7.356;2023-04-12T01:54:38;4.27;;;1.63;;
1505;SDS011;744;51.436;7.356;2023-04-12T01:57:08;5.23;;;1.50;;
1505;SDS011;744;51.436;7.356;2023-04-12T01:59:39;2.30;;;1.20;;
1505;SDS011;744;51.436;7.356;2023-04-12T02:02:08;4.43;;;1.30;;
1505;SDS011;744;51.436;7.356;2023-04-12T02:04:37;4.30;;;1.70;;
1505;SDS011;744;51.436;7.356;2023-04-12T02:07:04;4.60;;;1.87;;
1505;SDS011;744;51.436;7.356;2023-04-12T02:09:37;4.73;;;1.60;;
1505;SDS011;744;51.436;7.356;2023-04-12T02:12:05;3.40;;;1.43;;
1505;SDS011;744;51.436;7.356;2023-04-12T02:14:32;4.90;;;1.57;;
1505;SDS011;744;51.436;7.356;2023-04-12T02:16:59;4.43;;;1.63;;
1505;SDS011;744;51.436;7.356;2023-04-12T02:19:30;7.47;;;1.57;;
1505;SDS011;744;51.436;7.356;2023-04-12T02:21:57;1.20;;;1.10;;
1505;SDS011;744;51.436;7.356;2023-04-12T02:24:24;4.80;;;1.27;;
1505;SDS011;744;51.436;7.356;2023-04-12T02:26:52;6.23;;;1.60;;
1505;SDS011;744;51.436;7.356;2023-04-12T02:29:20;1.83;;;0.97;;
1505;SDS011;744;51.436;7.356;2023-04-12T02:31:47;6.90;;;2.93;;
1505;SDS011;744;51.436;7.356;2023-04-12T02:34:14;4.43;;;2.20;;
1505;SDS011;744;51.436;7.356;2023-04-12T02:36:46;2.23;;;1.20;;
1505;SDS011;744;51.436;7.356;2023-04-12T02:39:14;5.53;;;1.63;;
1505;SDS011;744;51.436;7.356;2023-04-12T02:41:44;2.97;;;1.50;;
1505;SDS011;744;51.436;7.356;2023-04-12T02:44:11;1.97;;;1.10;;
1505;SDS011;744;51.436;7.356;2023-04-12T02:46:38;1.80;;;1.00;;
1505;SDS011;744;51.436;7.356;2023-04-12T02:49:04;3.83;;;1.37;;
1505;SDS011;744;51.436;7.356;2023-04-12T02:51:31;4.03;;;2.20;;
1505;SDS011;744;51.436;7.356;2023-04-12T02:53:58;3.77;;;1.50;;
1505;SDS011;744;51.436;7.356;2023-04-12T02:56:25;3.17;;;1.17;;
1505;SDS011;744;51.436;7.356;2023-04-12T02:58:51;3.13;;;1.70;;
1505;SDS011;744;51.436;7.356;2023-04-12T03:01:18;3.40;;;1.20;;
1505;SDS011;744;51.436;7.356;2023-04-12T03:03:45;2.40;;;1.40;;
1505;SDS011;744;51.436;7.356;2023-04-12T03:06:12;6.10;;;2.37;;
1505;SDS011;744;51.436;7.356;2023-04-12T03:08:39;2.30;;;1.70;;
1505;SDS011;744;51.436;7.356;2023-04-12T03:11:06;6.40;;;2.00;;
1505;SDS011;744;51.436;7.356;2023-04-12T03:13:32;1.67;;;1.20;;
1505;SDS011;744;51.436;7.356;2023-04-12T03:15:59;2.10;;;1.40;;
1505;SDS011;744;51.436;7.356;2023-04-12T03:18:47;2.00;;;1.10;;
1505;SDS011;744;51.436;7.356;2023-04-12T03:21:14;2.07;;;1.33;;
1505;SDS011;744;51.436;7.356;2023-04-12T03:23:41;2.50;;;1.10;;
1505;SDS011;744;51.436;7.356;2023-04-12T03:26:08;3.33;;;1.13;;
1505;SDS011;744;51.436;7.356;2023-04-12T03:28:35;4.73;;;1.10;;
1505;SDS011;744;51.436;7.356;2023-04-12T03:31:02;3.03;;;1.17;;
1505;SDS011;744;51.436;7.356;2023-04-12T03:33:29;2.03;;;1.17;;
1505;SDS011;744;51.436;7.356;2023-04-12T03:35:56;2.37;;;1.10;;
1505;SDS011;744;51.436;7.356;2023-04-12T03:38:23;5.17;;;1.63;;
1505;SDS011;744;51.436;7.356;2023-04-12T03:40:49;2.30;;;1.10;;
1505;SDS011;744;51.436;7.356;2023-04-12T03:43:16;2.20;;;1.37;;
1505;SDS011;744;51.436;7.356;2023-04-12T03:45:43;3.50;;;1.20;;
1505;SDS011;744;51.436;7.356;2023-04-12T03:48:10;4.00;;;1.00;;
1505;SDS011;744;51.436;7.356;2023-04-12T03:50:37;4.53;;;1.77;;
1505;SDS011;744;51.436;7.356;2023-04-12T03:53:10;1.47;;;0.73;;
1505;SDS011;744;51.436;7.356;2023-04-12T03:55:37;3.73;;;1.60;;
1505;SDS011;744;51.436;7.356;2023-04-12T03:58:04;2.03;;;1.20;;
1505;SDS011;744;51.436;7.356;2023-04-12T04:00:30;1.00;;;0.83;;
1505;SDS011;744;51.436;7.356;2023-04-12T04:02:57;2.50;;;0.87;;
1505;SDS011;744;51.436;7.356;2023-04-12T04:05:28;1.70;;;0.93;;
1505;SDS011;744;51.436;7.356;2023-04-12T04:07:56;4.03;;;1.03;;
1505;SDS011;744;51.436;7.356;2023-04-12T04:10:27;1.73;;;0.90;;
1505;SDS011;744;51.436;7.356;2023-04-12T04:12:54;1.63;;;1.00;;
1505;SDS011;744;51.436;7.356;2023-04-12T04:15:21;3.00;;;1.10;;
1505;SDS011;744;51.436;7.356;2023-04-12T04:17:48;2.47;;;1.10;;
1505;SDS011;744;51.436;7.356;2023-04-12T04:20:15;2.10;;;1.30;;
1505;SDS011;744;51.436;7.356;2023-04-12T04:22:43;3.50;;;1.20;;
1505;SDS011;744;51.436;7.356;2023-04-12T04:25:14;3.43;;;1.30;;
1505;SDS011;744;51.436;7.356;2023-04-12T04:27:41;2.00;;;1.20;;
1505;SDS011;744;51.436;7.356;2023-04-12T04:30:10;5.63;;;1.50;;
1505;SDS011;744;51.436;7.356;2023-04-12T04:32:37;2.70;;;1.20;;
1505;SDS011;744;51.436;7.356;2023-04-12T04:35:04;1.00;;;0.90;;
1505;SDS011;744;51.436;7.356;2023-04-12T04:37:32;2.00;;;1.23;;
1505;SDS011;744;51.436;7.356;2023-04-12T04:40:02;2.10;;;1.10;;
1505;SDS011;744;51.436;7.356;2023-04-12T04:42:36;3.70;;;1.20;;
1505;SDS011;744;51.436;7.356;2023-04-12T04:45:05;1.70;;;0.93;;
1505;SDS011;744;51.436;7.356;2023-04-12T04:47:38;1.83;;;1.20;;
1505;SDS011;744;51.436;7.356;2023-04-12T04:50:06;6.77;;;1.40;;
1505;SDS011;744;51.436;7.356;2023-04-12T04:52:33;1.90;;;1.10;;
1505;SDS011;744;51.436;7.356;2023-04-12T04:55:00;2.37;;;1.40;;
1505;SDS011;744;51.436;7.356;2023-04-12T04:57:30;1.90;;;1.17;;
1505;SDS011;744;51.436;7.356;2023-04-12T04:59:57;1.77;;;1.07;;
1505;SDS011;744;51.436;7.356;2023-04-12T05:02:24;2.00;;;1.40;;
1505;SDS011;744;51.436;7.356;2023-04-12T05:04:51;1.27;;;0.70;;
1505;SDS011;744;51.436;7.356;2023-04-12T05:07:21;2.80;;;1.07;;
1505;SDS011;744;51.436;7.356;2023-04-12T05:09:48;2.77;;;0.97;;
1505;SDS011;744;51.436;7.356;2023-04-12T05:12:15;4.47;;;1.33;;
1505;SDS011;744;51.436;7.356;2023-04-12T05:14:42;1.13;;;1.00;;
1505;SDS011;744;51.436;7.356;2023-04-12T05:17:16;3.67;;;1.00;;
1505;SDS011;744;51.436;7.356;2023-04-12T05:19:43;2.13;;;1.07;;
1505;SDS011;744;51.436;7.356;2023-04-12T05:22:10;3.93;;;1.50;;
1505;SDS011;744;51.436;7.356;2023-04-12T05:24:39;2.30;;;1.10;;
1505;SDS011;744;51.436;7.356;2023-04-12T05:27:06;3.60;;;1.10;;
1505;SDS011;744;51.436;7.356;2023-04-12T05:29:33;2.33;;;0.80;;
1505;SDS011;744;51.436;7.356;2023-04-12T05:31:59;1.20;;;1.10;;
1505;SDS011;744;51.436;7.356;2023-04-12T05:34:27;1.50;;;0.90;;
1505;SDS011;744;51.436;7.356;2023-04-12T05:36:54;0.80;;;0.80;;
1505;SDS011;744;51.436;7.356;2023-04-12T05:39:21;2.57;;;0.90;;
1505;SDS011;744;51.436;7.356;2023-04-12T05:41:48;2.33;;;1.23;;
1505;SDS011;744;51.436;7.356;2023-04-12T05:44:14;2.50;;;1.17;;
1505;SDS011;744;51.436;7.356;2023-04-12T05:46:41;1.70;;;1.00;;
1505;SDS011;744;51.436;7.356;2023-04-12T05:49:08;1.73;;;1.20;;
1505;SDS011;744;51.436;7.356;2023-04-12T05:51:35;2.17;;;1.10;;
1505;SDS011;744;51.436;7.356;2023-04-12T05:54:07;2.67;;;0.80;;
1505;SDS011;744;51.436;7.356;2023-04-12T05:56:34;1.23;;;0.90;;
1505;SDS011;744;51.436;7.356;2023-04-12T05:59:01;1.30;;;1.07;;
1505;SDS011;744;51.436;7.356;2023-04-12T06:01:28;2.23;;;1.13;;
1505;SDS011;744;51.436;7.356;2023-04-12T06:03:58;2.20;;;1.03;;
1505;SDS011;744;51.436;7.356;2023-04-12T06:06:28;0.70;;;0.60;;
1505;SDS011;744;51.436;7.356;2023-04-12T06:08:56;2.00;;;1.27;;
1505;SDS011;744;51.436;7.356;2023-04-12T06:11:28;4.43;;;0.70;;
1505;SDS011;744;51.436;7.356;2023-04-12T06:13:54;1.40;;;0.83;;
1505;SDS011;744;51.436;7.356;2023-04-12T06:16:21;1.07;;;0.67;;
1505;SDS011;744;51.436;7.356;2023-04-12T06:18:48;1.40;;;1.10;;
1505;SDS011;744;51.436;7.356;2023-04-12T06:21:15;2.23;;;1.13;;
1505;SDS011;744;51.436;7.356;2023-04-12T06:23:42;2.30;;;1.20;;
1505;SDS011;744;51.436;7.356;2023-04-12T06:26:08;1.27;;;0.90;;
1505;SDS011;744;51.436;7.356;2023-04-12T06:28:35;1.80;;;0.90;;
1505;SDS011;744;51.436;7.356;2023-04-12T06:31:02;2.00;;;1.00;;
1505;SDS011;744;51.436;7.356;2023-04-12T06:33:29;0.87;;;0.60;;
1505;SDS011;744;51.436;7.356;2023-04-12T06:35:56;1.43;;;0.50;;
1505;SDS011;744;51.436;7.356;2023-04-12T06:38:23;0.70;;;0.60;;
1505;SDS011;744;51.436;7.356;2023-04-12T06:40:50;1.33;;;1.00;;
1505;SDS011;744;51.436;7.356;2023-04-12T06:43:17;0.97;;;0.70;;
1505;SDS011;744;51.436;7.356;2023-04-12T06:45:45;2.00;;;1.40;;
1505;SDS011;744;51.436;7.356;2023-04-12T06:48:12;2.53;;;0.60;;
1505;SDS011;744;51.436;7.356;2023-04-12T06:50:39;1.33;;;0.80;;
1505;SDS011;744;51.436;7.356;2023-04-12T06:53:05;0.73;;;0.60;;
1505;SDS011;744;51.436;7.356;2023-04-12T06:55:32;0.90;;;0.40;;
1505;SDS011;744;51.436;7.356;2023-04-12T06:58:00;1.90;;;0.67;;
1505;SDS011;744;51.436;7.356;2023-04-12T07:00:27;2.00;;;0.70;;
1505;SDS011;744;51.436;7.356;2023-04-12T07:02:54;1.13;;;0.40;;
1505;SDS011;744;51.436;7.356;2023-04-12T07:05:21;0.60;;;0.50;;
1505;SDS011;744;51.436;7.356;2023-04-12T07:07:48;1.10;;;0.40;;
1505;SDS011;744;51.436;7.356;2023-04-12T07:10:15;1.53;;;0.40;;
1505;SDS011;744;51.436;7.356;2023-04-12T07:12:42;0.90;;;0.43;;
1505;SDS011;744;51.436;7.356;2023-04-12T07:15:08;0.47;;;0.33;;
1505;SDS011;744;51.436;7.356;2023-04-12T07:17:35;0.57;;;0.57;;
1505;SDS011;744;51.436;7.356;2023-04-12T07:20:02;0.63;;;0.63;;
1505;SDS011;744;51.436;7.356;2023-04-12T07:22:29;0.70;;;0.40;;
1505;SDS011;744;51.436;7.356;2023-04-12T07:24:56;1.03;;;0.67;;
1505;SDS011;744;51.436;7.356;2023-04-12T07:27:23;1.30;;;0.70;;
1505;SDS011;744;51.436;7.356;2023-04-12T07:29:50;1.03;;;0.60;;
1505;SDS011;744;51.436;7.356;2023-04-12T07:32:18;1.33;;;0.40;;
1505;SDS011;744;51.436;7.356;2023-04-12T07:34:45;3.90;;;0.60;;
1505;SDS011;744;51.436;7.356;2023-04-12T07:37:12;1.33;;;0.80;;
1505;SDS011;744;51.436;7.356;2023-04-12T07:39:39;0.50;;;0.40;;
1505;SDS011;744;51.436;7.356;2023-04-12T07:42:06;3.90;;;0.40;;
1505;SDS011;744;51.436;7.356;2023-04-12T07:44:33;0.60;;;0.47;;
1505;SDS011;744;51.436;7.356;2023-04-12T07:47:03;0.97;;;0.40;;
1505;SDS011;744;51.436;7.356;2023-04-12T07:49:30;1.30;;;0.37;;
1505;SDS011;744;51.436;7.356;2023-04-12T07:51:57;0.77;;;0.50;;
1505;SDS011;744;51.436;7.356;2023-04-12T07:54:26;2.17;;;0.50;;
1505;SDS011;744;51.436;7.356;2023-04-12T07:56:59;0.53;;;0.53;;
1505;SDS011;744;51.436;7.356;2023-04-12T07:59:27;0.40;;;0.37;;
1505;SDS011;744;51.436;7.356;2023-04-12T08:01:55;0.70;;;0.70;;
1505;SDS011;744;51.436;7.356;2023-04-12T08:04:22;2.77;;;0.70;;
1505;SDS011;744;51.436;7.356;2023-04-12T08:06:50;0.47;;;0.47;;
1505;SDS011;744;51.436;7.356;2023-04-12T08:09:17;1.30;;;1.20;;
1505;SDS011;744;51.436;7.356;2023-04-12T08:11:43;1.23;;;0.53;;
1505;SDS011;744;51.436;7.356;2023-04-12T08:14:10;1.30;;;0.40;;
1505;SDS011;744;51.436;7.356;2023-04-12T08:16:37;0.50;;;0.30;;
1505;SDS011;744;51.436;7.356;2023-04-12T08:19:04;0.50;;;0.50;;
1505;SDS011;744;51.436;7.356;2023-04-12T08:21:31;1.90;;;0.50;;
1505;SDS011;744;51.436;7.356;2023-04-12T08:23:58;0.60;;;0.50;;
1505;SDS011;744;51.436;7.356;2023-04-12T08:26:25;8.63;;;1.40;;
1505;SDS011;744;51.436;7.356;2023-04-12T08:28:52;4.07;;;0.90;;
1505;SDS011;744;51.436;7.356;2023-04-12T08:31:19;1.27;;;0.60;;
1505;SDS011;744;51.436;7.356;2023-04-12T08:33:47;1.53;;;0.53;;
1505;SDS011;744;51.436;7.356;2023-04-12T08:36:14;1.90;;;0.90;;
1505;SDS011;744;51.436;7.356;2023-04-12T08:38:41;1.27;;;0.50;;
1505;SDS011;744;51.436;7.356;2023-04-12T08:41:11;2.40;;;0.50;;
1505;SDS011;744;51.436;7.356;2023-04-12T08:43:42;2.30;;;0.43;;
1505;SDS011;744;51.436;7.356;2023-04-12T08:46:11;0.50;;;0.37;;
1505;SDS011;744;51.436;7.356;2023-04-12T08:48:42;1.57;;;1.07;;
1505;SDS011;744;51.436;7.356;2023-04-12T08:51:20;0.83;;;0.43;;
1505;SDS011;744;51.436;7.356;2023-04-12T08:53:47;0.53;;;0.53;;
1505;SDS011;744;51.436;7.356;2023-04-12T08:56:14;0.53;;;0.50;;
1505;SDS011;744;51.436;7.356;2023-04-12T08:58:45;1.00;;;0.50;;
1505;SDS011;744;51.436;7.356;2023-04-12T09:01:16;2.07;;;0.70;;
1505;SDS011;744;51.436;7.356;2023-04-12T09:03:45;0.77;;;0.37;;
1505;SDS011;744;51.436;7.356;2023-04-12T09:06:12;1.90;;;0.43;;
1505;SDS011;744;51.436;7.356;2023-04-12T09:08:52;0.83;;;0.40;;
1505;SDS011;744;51.436;7.356;2023-04-12T09:11:20;0.50;;;0.30;;
1505;SDS011;744;51.436;7.356;2023-04-12T09:13:52;0.50;;;0.50;;
1505;SDS011;744;51.436;7.356;2023-04-12T09:16:39;1.80;;;0.60;;
1505;SDS011;744;51.436;7.356;2023-04-12T09:19:07;0.70;;;0.30;;
1505;SDS011;744;51.436;7.356;2023-04-12T09:21:34;0.90;;;0.50;;
1505;SDS011;744;51.436;7.356;2023-04-12T09:24:05;2.10;;;0.60;;
1505;SDS011;744;51.436;7.356;2023-04-12T09:26:40;5.13;;;1.80;;
1505;SDS011;744;51.436;7.356;2023-04-12T09:29:20;2.60;;;0.67;;
1505;SDS011;744;51.436;7.356;2023-04-12T09:31:55;0.60;;;0.47;;
1505;SDS011;744;51.436;7.356;2023-04-12T09:34:30;0.50;;;0.40;;
1505;SDS011;744;51.436;7.356;2023-04-12T09:36:57;1.70;;;0.37;;
1505;SDS011;744;51.436;7.356;2023-04-12T09:39:29;3.80;;;0.60;;
1505;SDS011;744;51.436;7.356;2023-04-12T09:42:03;1.90;;;0.60;;
1505;SDS011;744;51.436;7.356;2023-04-12T09:44:43;3.30;;;0.63;;
1505;SDS011;744;51.436;7.356;2023-04-12T09:47:10;1.00;;;0.70;;
1505;SDS011;744;51.436;7.356;2023-04-12T09:52:05;0.30;;;0.30;;
1505;SDS011;744;51.436;7.356;2023-04-12T09:54:51;3.47;;;0.50;;
1505;SDS011;744;51.436;7.356;2023-04-12T09:57:19;2.30;;;1.90;;
1505;SDS011;744;51.436;7.356;2023-04-12T09:59:49;4.83;;;0.60;;
1505;SDS011;744;51.436;7.356;2023-04-12T10:02:20;0.73;;;0.57;;
1505;SDS011;744;51.436;7.356;2023-04-12T10:04:52;2.30;;;0.53;;
1505;SDS011;744;51.436;7.356;2023-04-12T10:07:20;0.50;;;0.40;;
1505;SDS011;744;51.436;7.356;2023-04-12T10:09:47;1.50;;;0.67;;
1505;SDS011;744;51.436;7.356;2023-04-12T10:12:14;0.93;;;0.50;;
1505;SDS011;744;51.436;7.356;2023-04-12T10:14:42;1.50;;;0.60;;
1505;SDS011;744;51.436;7.356;2023-04-12T10:17:09;0.67;;;0.40;;
1505;SDS011;744;51.436;7.356;2023-04-12T10:19:38;1.17;;;0.80;;
1505;SDS011;744;51.436;7.356;2023-04-12T10:22:05;0.60;;;0.40;;
1505;SDS011;744;51.436;7.356;2023-04-12T10:24:32;1.13;;;0.40;;
1505;SDS011;744;51.436;7.356;2023-04-12T10:26:58;2.10;;;0.67;;
1505;SDS011;744;51.436;7.356;2023-04-12T10:29:29;0.60;;;0.50;;
1505;SDS011;744;51.436;7.356;2023-04-12T10:35:04;0.47;;;0.47;;
1505;SDS011;744;51.436;7.356;2023-04-12T10:40:23;2.50;;;1.00;;
1505;SDS011;744;51.436;7.356;2023-04-12T10:43:22;0.90;;;0.70;;
1505;SDS011;744;51.436;7.356;2023-04-12T10:45:53;0.60;;;0.60;;
1505;SDS011;744;51.436;7.356;2023-04-12T10:54:39;1.93;;;0.70;;
1505;SDS011;744;51.436;7.356;2023-04-12T10:56:44;1.03;;;0.57;;
1505;SDS011;744;51.436;7.356;2023-04-12T10:59:15;1.70;;;0.87;;
1505;SDS011;744;51.436;7.356;2023-04-12T11:04:34;1.67;;;1.00;;
1505;SDS011;744;51.436;7.356;2023-04-12T11:14:36;0.70;;;0.70;;
1505;SDS011;744;51.436;7.356;2023-04-12T11:19:51;1.03;;;0.53;;
1505;SDS011;744;51.436;7.356;2023-04-12T11:22:21;0.83;;;0.40;;
1505;SDS011;744;51.436;7.356;2023-04-12T11:24:50;1.73;;;0.80;;
1505;SDS011;744;51.436;7.356;2023-04-12T11:27:19;0.50;;;0.50;;
1505;SDS011;744;51.436;7.356;2023-04-12T11:29:57;0.83;;;0.57;;
1505;SDS011;744;51.436;7.356;2023-04-12T11:32:25;0.80;;;0.80;;
1505;SDS011;744;51.436;7.356;2023-04-12T11:34:55;0.67;;;0.60;;
1505;SDS011;744;51.436;7.356;2023-04-12T11:37:23;1.50;;;0.90;;
1505;SDS011;744;51.436;7.356;2023-04-12T11:39:54;1.13;;;0.90;;
1505;SDS011;744;51.436;7.356;2023-04-12T11:42:23;0.90;;;0.90;;
1505;SDS011;744;51.436;7.356;2023-04-12T11:44:50;1.53;;;1.40;;
1505;SDS011;744;51.436;7.356;2023-04-12T11:47:27;2.50;;;1.50;;
1505;SDS011;744;51.436;7.356;2023-04-12T11:49:54;0.70;;;0.70;;
1505;SDS011;744;51.436;7.356;2023-04-12T11:52:32;1.73;;;0.67;;
1505;SDS011;744;51.436;7.356;2023-04-12T11:55:02;0.57;;;0.57;;
1505;SDS011;744;51.436;7.356;2023-04-12T11:57:34;0.93;;;0.70;;
1505;SDS011;744;51.436;7.356;2023-04-12T12:00:01;0.70;;;0.50;;
1505;SDS011;744;51.436;7.356;2023-04-12T12:02:32;0.83;;;0.60;;
1505;SDS011;744;51.436;7.356;2023-04-12T12:05:14;0.60;;;0.50;;
1505;SDS011;744;51.436;7.356;2023-04-12T12:07:42;1.13;;;0.50;;
1505;SDS011;744;51.436;7.356;2023-04-12T12:10:09;5.40;;;0.80;;
1505;SDS011;744;51.436;7.356;2023-04-12T12:12:36;2.77;;;0.80;;
1505;SDS011;744;51.436;7.356;2023-04-12T12:15:02;0.80;;;0.80;;
1505;SDS011;744;51.436;7.356;2023-04-12T12:17:30;1.50;;;1.30;;
1505;SDS011;744;51.436;7.356;2023-04-12T12:20:03;1.00;;;1.00;;
1505;SDS011;744;51.436;7.356;2023-04-12T12:22:30;1.90;;;1.30;;
1505;SDS011;744;51.436;7.356;2023-04-12T12:24:57;1.73;;;1.63;;
1505;SDS011;744;51.436;7.356;2023-04-12T12:27:38;1.67;;;1.57;;
1505;SDS011;744;51.436;7.356;2023-04-12T12:30:07;2.27;;;1.83;;
1505;SDS011;744;51.436;7.356;2023-04-12T12:32:36;2.10;;;1.83;;
1505;SDS011;744;51.436;7.356;2023-04-12T12:35:07;2.17;;;1.73;;
1505;SDS011;744;51.436;7.356;2023-04-12T12:37:35;1.67;;;1.57;;
1505;SDS011;744;51.436;7.356;2023-04-12T12:40:03;3.33;;;2.20;;
1505;SDS011;744;51.436;7.356;2023-04-12T12:42:52;2.83;;;2.43;;
1505;SDS011;744;51.436;7.356;2023-04-12T12:45:24;5.07;;;2.60;;
1505;SDS011;744;51.436;7.356;2023-04-12T12:48:00;3.43;;;1.70;;
1505;SDS011;744;51.436;7.356;2023-04-12T12:50:30;3.83;;;2.53;;
1505;SDS011;744;51.436;7.356;2023-04-12T12:52:58;3.03;;;2.10;;
1505;SDS011;744;51.436;7.356;2023-04-12T12:55:26;3.30;;;1.60;;
1505;SDS011;744;51.436;7.356;2023-04-12T12:57:54;3.23;;;2.27;;
1505;SDS011;744;51.436;7.356;2023-04-12T13:00:26;3.83;;;2.40;;
1505;SDS011;744;51.436;7.356;2023-04-12T13:02:53;2.30;;;2.10;;
1505;SDS011;744;51.436;7.356;2023-04-12T13:05:21;6.00;;;1.90;;
1505;SDS011;744;51.436;7.356;2023-04-12T13:07:48;3.83;;;2.30;;
1505;SDS011;744;51.436;7.356;2023-04-12T13:10:15;6.07;;;2.20;;
1505;SDS011;744;51.436;7.356;2023-04-12T13:12:42;3.80;;;2.20;;
1505;SDS011;744;51.436;7.356;2023-04-12T13:15:09;3.10;;;1.70;;
1505;SDS011;744;51.436;7.356;2023-04-12T13:17:47;2.37;;;2.17;;
1505;SDS011;744;51.436;7.356;2023-04-12T13:20:14;3.90;;;2.87;;
1505;SDS011;744;51.436;7.356;2023-04-12T13:22:41;3.57;;;1.97;;
1505;SDS011;744;51.436;7.356;2023-04-12T13:25:08;3.50;;;1.90;;
1505;SDS011;744;51.436;7.356;2023-04-12T13:27:35;3.73;;;1.63;;
1505;SDS011;744;51.436;7.356;2023-04-12T13:30:03;4.53;;;1.93;;
1505;SDS011;744;51.436;7.356;2023-04-12T13:32:31;3.47;;;1.57;;
1505;SDS011;744;51.436;7.356;2023-04-12T13:34:58;2.87;;;1.83;;
1505;SDS011;744;51.436;7.356;2023-04-12T13:37:25;3.10;;;1.97;;
1505;SDS011;744;51.436;7.356;2023-04-12T13:39:51;2.73;;;2.13;;
1505;SDS011;744;51.436;7.356;2023-04-12T13:42:18;3.93;;;2.17;;
1505;SDS011;744;51.436;7.356;2023-04-12T13:44:45;6.23;;;1.90;;
1505;SDS011;744;51.436;7.356;2023-04-12T13:47:16;3.63;;;1.77;;
1505;SDS011;744;51.436;7.356;2023-04-12T13:49:43;3.77;;;1.70;;
1505;SDS011;744;51.436;7.356;2023-04-12T13:52:10;4.57;;;2.27;;
1505;SDS011;744;51.436;7.356;2023-04-12T13:54:37;2.87;;;2.13;;
1505;SDS011;744;51.436;7.356;2023-04-12T13:57:05;5.37;;;2.47;;
1505;SDS011;744;51.436;7.356;2023-04-12T13:59:33;3.97;;;1.47;;
1505;SDS011;744;51.436;7.356;2023-04-12T14:02:00;3.40;;;1.50;;
1505;SDS011;744;51.436;7.356;2023-04-12T14:04:27;8.27;;;2.20;;
1505;SDS011;744;51.436;7.356;2023-04-12T14:06:55;2.83;;;1.57;;
1505;SDS011;744;51.436;7.356;2023-04-12T14:09:23;4.40;;;1.93;;
1505;SDS011;744;51.436;7.356;2023-04-12T14:11:51;4.83;;;1.70;;
1505;SDS011;744;51.436;7.356;2023-04-12T14:14:23;4.97;;;1.30;;
1505;SDS011;744;51.436;7.356;2023-04-12T14:16:51;4.90;;;1.43;;
1505;SDS011;744;51.436;7.356;2023-04-12T14:19:22;5.73;;;1.83;;
1505;SDS011;744;51.436;7.356;2023-04-12T14:21:49;4.50;;;2.10;;
1505;SDS011;744;51.436;7.356;2023-04-12T14:24:17;4.10;;;2.40;;
1505;SDS011;744;51.436;7.356;2023-04-12T14:26:45;8.97;;;2.20;;
1505;SDS011;744;51.436;7.356;2023-04-12T14:29:12;2.67;;;1.60;;
1505;SDS011;744;51.436;7.356;2023-04-12T14:31:39;5.40;;;2.33;;
1505;SDS011;744;51.436;7.356;2023-04-12T14:34:06;6.83;;;2.10;;
1505;SDS011;744;51.436;7.356;2023-04-12T14:36:36;6.37;;;1.70;;
1505;SDS011;744;51.436;7.356;2023-04-12T14:39:03;3.67;;;1.80;;
1505;SDS011;744;51.436;7.356;2023-04-12T14:41:32;5.93;;;2.10;;
1505;SDS011;744;51.436;7.356;2023-04-12T14:43:59;6.13;;;2.20;;
1505;SDS011;744;51.436;7.356;2023-04-12T14:46:26;8.83;;;3.10;;
1505;SDS011;744;51.436;7.356;2023-04-12T14:48:54;7.70;;;3.57;;
1505;SDS011;744;51.436;7.356;2023-04-12T14:51:22;7.93;;;4.13;;
1505;SDS011;744;51.436;7.356;2023-04-12T14:53:49;6.40;;;3.80;;
1505;SDS011;744;51.436;7.356;2023-04-12T14:56:20;6.70;;;3.43;;
1505;SDS011;744;51.436;7.356;2023-04-12T14:58:54;10.57;;;4.40;;
1505;SDS011;744;51.436;7.356;2023-04-12T15:01:21;9.00;;;4.20;;
1505;SDS011;744;51.436;7.356;2023-04-12T15:03:49;5.50;;;3.70;;
1505;SDS011;744;51.436;7.356;2023-04-12T15:06:18;11.70;;;4.30;;
1505;SDS011;744;51.436;7.356;2023-04-12T15:08:50;9.27;;;4.03;;
1505;SDS011;744;51.436;7.356;2023-04-12T15:11:20;8.83;;;4.27;;
1505;SDS011;744;51.436;7.356;2023-04-12T15:13:52;12.37;;;4.60;;
1505;SDS011;744;51.436;7.356;2023-04-12T15:16:20;7.17;;;3.90;;
1505;SDS011;744;51.436;7.356;2023-04-12T15:18:47;5.70;;;3.80;;
1505;SDS011;744;51.436;7.356;2023-04-12T15:21:16;10.53;;;4.30;;
1505;SDS011;744;51.436;7.356;2023-04-12T15:23:43;6.53;;;3.10;;
1505;SDS011;744;51.436;7.356;2023-04-12T15:26:10;8.57;;;3.90;;
1505;SDS011;744;51.436;7.356;2023-04-12T15:28:39;3.67;;;3.17;;
1505;SDS011;744;51.436;7.356;2023-04-12T15:31:06;8.60;;;3.93;;
1505;SDS011;744;51.436;7.356;2023-04-12T15:33:34;8.40;;;3.63;;
1505;SDS011;744;51.436;7.356;2023-04-12T15:36:02;5.83;;;3.53;;
1505;SDS011;744;51.436;7.356;2023-04-12T15:38:30;6.80;;;3.80;;
1505;SDS011;744;51.436;7.356;2023-04-12T15:40:58;12.47;;;5.90;;
1505;SDS011;744;51.436;7.356;2023-04-12T15:43:26;13.23;;;5.67;;
1505;SDS011;744;51.436;7.356;2023-04-12T15:45:54;8.23;;;4.20;;
1505;SDS011;744;51.436;7.356;2023-04-12T15:48:22;11.70;;;4.47;;
1505;SDS011;744;51.436;7.356;2023-04-12T15:50:50;6.60;;;3.23;;
1505;SDS011;744;51.436;7.356;2023-04-12T15:53:18;5.00;;;2.70;;
1505;SDS011;744;51.436;7.356;2023-04-12T15:55:46;11.60;;;3.57;;
1505;SDS011;744;51.436;7.356;2023-04-12T15:58:14;5.13;;;2.87;;
1505;SDS011;744;51.436;7.356;2023-04-12T16:00:41;5.77;;;2.80;;
1505;SDS011;744;51.436;7.356;2023-04-12T16:03:08;5.57;;;3.63;;
1505;SDS011;744;51.436;7.356;2023-04-12T16:05:35;6.80;;;3.40;;
1505;SDS011;744;51.436;7.356;2023-04-12T16:08:02;14.03;;;6.03;;
1505;SDS011;744;51.436;7.356;2023-04-12T16:10:29;7.60;;;5.17;;
1505;SDS011;744;51.436;7.356;2023-04-12T16:12:56;14.37;;;5.17;;
1505;SDS011;744;51.436;7.356;2023-04-12T16:15:23;11.43;;;5.80;;